sensor_id;sensor_type;location;lat;lon;timestamp;temperature;humidity
22450;DHT22;11392;57.390;-2.468;2024-02-21T00:01:37;4.70;99.90
22450;DHT22;11392;57.390;-2.468;2024-02-21T00:04:04;4.70;99.90
22450;DHT22;11392;57.390;-2.468;2024-02-21T00:06:32;4.70;99.90
22450;DHT22;11392;57.390;-2.468;2024-02-21T00:08:59;4.70;99.90
22450;DHT22;11392;57.390;-2.468;2024-02-21T00:11:26;4.70;99.90
22450;DHT22;11392;57.390;-2.468;2024-02-21T00:13:53;4.70;99.90
22450;DHT22;11392;57.390;-2.468;2024-02-21T00:16:20;4.60;99.90
22450;DHT22;11392;57.390;-2.468;2024-02-21T00:18:48;4.50;99.90
22450;DHT22;11392;57.390;-2.468;2024-02-21T00:21:15;4.50;99.90
22450;DHT22;11392;57.390;-2.468;2024-02-21T00:23:45;4.40;99.90
22450;DHT22;11392;57.390;-2.468;2024-02-21T00:26:17;4.50;99.90
22450;DHT22;11392;57.390;-2.468;2024-02-21T00:28:44;4.40;99.90
22450;DHT22;11392;57.390;-2.468;2024-02-21T00:31:11;4.40;99.90
22450;DHT22;11392;57.390;-2.468;2024-02-21T00:33:39;4.30;99.90
22450;DHT22;11392;57.390;-2.468;2024-02-21T00:36:06;4.40;99.90
22450;DHT22;11392;57.390;-2.468;2024-02-21T00:38:33;4.50;99.90
22450;DHT22;11392;57.390;-2.468;2024-02-21T00:41:00;4.60;99.90
22450;DHT22;11392;57.390;-2.468;2024-02-21T00:43:27;4.60;99.90
22450;DHT22;11392;57.390;-2.468;2024-02-21T00:45:54;4.60;99.90
22450;DHT22;11392;57.390;-2.468;2024-02-21T00:48:21;4.50;99.90
22450;DHT22;11392;57.390;-2.468;2024-02-21T00:50:48;4.40;99.90
22450;DHT22;11392;57.390;-2.468;2024-02-21T00:53:15;4.30;99.90
22450;DHT22;11392;57.390;-2.468;2024-02-21T00:55:42;4.30;99.90
22450;DHT22;11392;57.390;-2.468;2024-02-21T00:58:10;4.30;99.90
22450;DHT22;11392;57.390;-2.468;2024-02-21T01:00:37;4.30;99.90
22450;DHT22;11392;57.390;-2.468;2024-02-21T01:03:04;4.30;99.90
22450;DHT22;11392;57.390;-2.468;2024-02-21T01:05:31;4.30;99.90
22450;DHT22;11392;57.390;-2.468;2024-02-21T01:07:58;4.30;99.90
22450;DHT22;11392;57.390;-2.468;2024-02-21T01:10:26;4.30;99.90
22450;DHT22;11392;57.390;-2.468;2024-02-21T01:12:53;4.20;99.90
22450;DHT22;11392;57.390;-2.468;2024-02-21T01:15:20;4.30;99.90
22450;DHT22;11392;57.390;-2.468;2024-02-21T01:17:47;4.40;99.90
22450;DHT22;11392;57.390;-2.468;2024-02-21T01:20:14;4.40;99.90
22450;DHT22;11392;57.390;-2.468;2024-02-21T01:22:41;4.20;99.90
22450;DHT22;11392;57.390;-2.468;2024-02-21T01:25:08;4.20;99.90
22450;DHT22;11392;57.390;-2.468;2024-02-21T01:27:35;4.30;99.90
22450;DHT22;11392;57.390;-2.468;2024-02-21T01:30:02;4.30;99.90
22450;DHT22;11392;57.390;-2.468;2024-02-21T01:32:29;4.30;99.90
22450;DHT22;11392;57.390;-2.468;2024-02-21T01:34:57;4.10;99.90
22450;DHT22;11392;57.390;-2.468;2024-02-21T01:37:24;4.10;99.90
22450;DHT22;11392;57.390;-2.468;2024-02-21T01:39:51;4.10;99.90
22450;DHT22;11392;57.390;-2.468;2024-02-21T01:42:18;4.00;99.90
22450;DHT22;11392;57.390;-2.468;2024-02-21T01:44:45;4.00;99.90
22450;DHT22;11392;57.390;-2.468;2024-02-21T01:47:12;3.90;99.90
22450;DHT22;11392;57.390;-2.468;2024-02-21T01:49:41;3.80;99.90
22450;DHT22;11392;57.390;-2.468;2024-02-21T01:52:09;3.60;99.90
22450;DHT22;11392;57.390;-2.468;2024-02-21T01:54:37;3.50;99.90
22450;DHT22;11392;57.390;-2.468;2024-02-21T01:57:06;3.40;99.90
22450;DHT22;11392;57.390;-2.468;2024-02-21T01:59:33;3.20;99.90
22450;DHT22;11392;57.390;-2.468;2024-02-21T02:02:02;3.10;99.90
22450;DHT22;11392;57.390;-2.468;2024-02-21T02:04:29;3.10;99.90
22450;DHT22;11392;57.390;-2.468;2024-02-21T02:07:01;3.10;99.90
22450;DHT22;11392;57.390;-2.468;2024-02-21T02:09:32;3.20;99.90
22450;DHT22;11392;57.390;-2.468;2024-02-21T02:12:02;3.20;99.90
22450;DHT22;11392;57.390;-2.468;2024-02-21T02:14:32;3.20;99.90
22450;DHT22;11392;57.390;-2.468;2024-02-21T02:17:02;3.20;99.90
22450;DHT22;11392;57.390;-2.468;2024-02-21T02:19:31;3.10;99.90
22450;DHT22;11392;57.390;-2.468;2024-02-21T02:22:13;3.10;99.90
22450;DHT22;11392;57.390;-2.468;2024-02-21T02:24:41;3.10;99.90
22450;DHT22;11392;57.390;-2.468;2024-02-21T02:27:08;3.00;99.90
22450;DHT22;11392;57.390;-2.468;2024-02-21T02:29:35;3.00;99.90
22450;DHT22;11392;57.390;-2.468;2024-02-21T02:32:02;3.00;99.90
22450;DHT22;11392;57.390;-2.468;2024-02-21T02:34:29;3.00;99.90
22450;DHT22;11392;57.390;-2.468;2024-02-21T02:36:57;3.00;99.90
22450;DHT22;11392;57.390;-2.468;2024-02-21T02:39:24;2.90;99.90
22450;DHT22;11392;57.390;-2.468;2024-02-21T02:41:51;2.80;99.90
22450;DHT22;11392;57.390;-2.468;2024-02-21T02:44:18;2.80;99.90
22450;DHT22;11392;57.390;-2.468;2024-02-21T02:46:45;2.80;99.90
22450;DHT22;11392;57.390;-2.468;2024-02-21T02:49:12;2.90;99.90
22450;DHT22;11392;57.390;-2.468;2024-02-21T02:51:43;2.80;99.90
22450;DHT22;11392;57.390;-2.468;2024-02-21T02:54:11;2.80;99.90
22450;DHT22;11392;57.390;-2.468;2024-02-21T02:56:39;2.80;99.90
22450;DHT22;11392;57.390;-2.468;2024-02-21T02:59:06;2.80;99.90
22450;DHT22;11392;57.390;-2.468;2024-02-21T03:01:36;2.80;99.90
22450;DHT22;11392;57.390;-2.468;2024-02-21T03:04:03;2.90;99.90
22450;DHT22;11392;57.390;-2.468;2024-02-21T03:06:30;2.90;99.90
22450;DHT22;11392;57.390;-2.468;2024-02-21T03:08:57;2.90;99.90
22450;DHT22;11392;57.390;-2.468;2024-02-21T03:11:27;2.90;99.90
22450;DHT22;11392;57.390;-2.468;2024-02-21T03:13:57;2.90;99.90
22450;DHT22;11392;57.390;-2.468;2024-02-21T03:16:25;2.80;99.90
22450;DHT22;11392;57.390;-2.468;2024-02-21T03:18:52;2.80;99.90
22450;DHT22;11392;57.390;-2.468;2024-02-21T03:21:19;2.70;99.90
22450;DHT22;11392;57.390;-2.468;2024-02-21T03:23:46;2.70;99.90
22450;DHT22;11392;57.390;-2.468;2024-02-21T03:26:13;2.80;99.90
22450;DHT22;11392;57.390;-2.468;2024-02-21T03:28:44;2.90;99.90
22450;DHT22;11392;57.390;-2.468;2024-02-21T03:31:15;2.90;99.90
22450;DHT22;11392;57.390;-2.468;2024-02-21T03:33:42;2.90;99.90
22450;DHT22;11392;57.390;-2.468;2024-02-21T03:36:14;2.90;99.90
22450;DHT22;11392;57.390;-2.468;2024-02-21T03:38:42;2.90;99.90
22450;DHT22;11392;57.390;-2.468;2024-02-21T03:41:09;2.90;99.90
22450;DHT22;11392;57.390;-2.468;2024-02-21T03:43:38;2.90;99.90
22450;DHT22;11392;57.390;-2.468;2024-02-21T03:46:06;2.80;99.90
22450;DHT22;11392;57.390;-2.468;2024-02-21T03:48:33;2.80;99.90
22450;DHT22;11392;57.390;-2.468;2024-02-21T03:51:00;2.80;99.90
22450;DHT22;11392;57.390;-2.468;2024-02-21T03:53:27;2.80;99.90
22450;DHT22;11392;57.390;-2.468;2024-02-21T03:55:55;2.80;99.90
22450;DHT22;11392;57.390;-2.468;2024-02-21T03:58:23;2.80;99.90
22450;DHT22;11392;57.390;-2.468;2024-02-21T04:00:50;2.80;99.90
22450;DHT22;11392;57.390;-2.468;2024-02-21T04:03:17;2.80;99.90
22450;DHT22;11392;57.390;-2.468;2024-02-21T04:05:44;2.70;99.90
22450;DHT22;11392;57.390;-2.468;2024-02-21T04:08:11;2.70;99.90
22450;DHT22;11392;57.390;-2.468;2024-02-21T04:10:38;2.80;99.90
22450;DHT22;11392;57.390;-2.468;2024-02-21T04:13:06;2.80;99.90
22450;DHT22;11392;57.390;-2.468;2024-02-21T04:15:34;2.90;99.90
22450;DHT22;11392;57.390;-2.468;2024-02-21T04:18:02;2.90;99.90
22450;DHT22;11392;57.390;-2.468;2024-02-21T04:20:30;2.90;99.90
22450;DHT22;11392;57.390;-2.468;2024-02-21T04:22:57;2.80;99.90
22450;DHT22;11392;57.390;-2.468;2024-02-21T04:25:24;2.80;99.90
22450;DHT22;11392;57.390;-2.468;2024-02-21T04:27:52;2.90;99.90
22450;DHT22;11392;57.390;-2.468;2024-02-21T04:30:19;2.90;99.90
22450;DHT22;11392;57.390;-2.468;2024-02-21T04:32:46;2.90;99.90
22450;DHT22;11392;57.390;-2.468;2024-02-21T04:35:13;2.80;99.90
22450;DHT22;11392;57.390;-2.468;2024-02-21T04:37:40;2.70;99.90
22450;DHT22;11392;57.390;-2.468;2024-02-21T04:40:08;2.70;99.90
22450;DHT22;11392;57.390;-2.468;2024-02-21T04:42:35;2.70;99.90
22450;DHT22;11392;57.390;-2.468;2024-02-21T04:45:03;2.70;99.90
22450;DHT22;11392;57.390;-2.468;2024-02-21T04:47:30;2.70;99.90
22450;DHT22;11392;57.390;-2.468;2024-02-21T04:49:57;2.60;99.90
22450;DHT22;11392;57.390;-2.468;2024-02-21T04:52:24;2.60;99.90
22450;DHT22;11392;57.390;-2.468;2024-02-21T04:54:51;2.60;99.90
22450;DHT22;11392;57.390;-2.468;2024-02-21T04:57:18;2.60;99.90
22450;DHT22;11392;57.390;-2.468;2024-02-21T04:59:46;2.70;99.90
22450;DHT22;11392;57.390;-2.468;2024-02-21T05:02:16;2.80;99.90
22450;DHT22;11392;57.390;-2.468;2024-02-21T05:04:43;2.80;99.90
22450;DHT22;11392;57.390;-2.468;2024-02-21T05:07:11;2.80;99.90
22450;DHT22;11392;57.390;-2.468;2024-02-21T05:09:38;2.80;99.90
22450;DHT22;11392;57.390;-2.468;2024-02-21T05:12:06;2.90;99.90
22450;DHT22;11392;57.390;-2.468;2024-02-21T05:14:33;2.90;99.90
22450;DHT22;11392;57.390;-2.468;2024-02-21T05:17:00;2.90;99.90
22450;DHT22;11392;57.390;-2.468;2024-02-21T05:19:27;2.90;99.90
22450;DHT22;11392;57.390;-2.468;2024-02-21T05:21:54;3.00;99.90
22450;DHT22;11392;57.390;-2.468;2024-02-21T05:24:21;3.00;99.90
22450;DHT22;11392;57.390;-2.468;2024-02-21T05:26:48;3.00;99.90
22450;DHT22;11392;57.390;-2.468;2024-02-21T05:29:15;3.00;99.90
22450;DHT22;11392;57.390;-2.468;2024-02-21T05:31:55;3.00;99.90
22450;DHT22;11392;57.390;-2.468;2024-02-21T05:34:26;2.90;99.90
22450;DHT22;11392;57.390;-2.468;2024-02-21T05:36:53;2.90;99.90
22450;DHT22;11392;57.390;-2.468;2024-02-21T05:39:21;2.90;99.90
22450;DHT22;11392;57.390;-2.468;2024-02-21T05:41:49;2.80;99.90
22450;DHT22;11392;57.390;-2.468;2024-02-21T05:44:18;2.80;99.90
22450;DHT22;11392;57.390;-2.468;2024-02-21T05:46:46;2.80;99.90
22450;DHT22;11392;57.390;-2.468;2024-02-21T05:49:13;2.80;99.90
22450;DHT22;11392;57.390;-2.468;2024-02-21T05:51:41;2.80;99.90
22450;DHT22;11392;57.390;-2.468;2024-02-21T05:54:08;2.90;99.90
22450;DHT22;11392;57.390;-2.468;2024-02-21T05:56:36;3.00;99.90
22450;DHT22;11392;57.390;-2.468;2024-02-21T05:59:03;3.00;99.90
22450;DHT22;11392;57.390;-2.468;2024-02-21T06:01:30;3.10;99.90
22450;DHT22;11392;57.390;-2.468;2024-02-21T06:03:57;3.10;99.90
22450;DHT22;11392;57.390;-2.468;2024-02-21T06:06:24;3.10;99.90
22450;DHT22;11392;57.390;-2.468;2024-02-21T06:08:52;3.20;99.90
22450;DHT22;11392;57.390;-2.468;2024-02-21T06:11:20;3.30;99.90
22450;DHT22;11392;57.390;-2.468;2024-02-21T06:13:47;3.20;99.90
22450;DHT22;11392;57.390;-2.468;2024-02-21T06:16:15;3.20;99.90
22450;DHT22;11392;57.390;-2.468;2024-02-21T06:18:42;3.20;99.90
22450;DHT22;11392;57.390;-2.468;2024-02-21T06:21:09;3.20;99.90
22450;DHT22;11392;57.390;-2.468;2024-02-21T06:23:38;3.30;99.90
22450;DHT22;11392;57.390;-2.468;2024-02-21T06:26:05;3.30;99.90
22450;DHT22;11392;57.390;-2.468;2024-02-21T06:28:32;3.30;99.90
22450;DHT22;11392;57.390;-2.468;2024-02-21T06:30:59;3.30;99.90
22450;DHT22;11392;57.390;-2.468;2024-02-21T06:33:26;3.20;99.90
22450;DHT22;11392;57.390;-2.468;2024-02-21T06:35:54;3.20;99.90
22450;DHT22;11392;57.390;-2.468;2024-02-21T06:38:21;3.20;99.90
22450;DHT22;11392;57.390;-2.468;2024-02-21T06:40:48;3.20;99.90
22450;DHT22;11392;57.390;-2.468;2024-02-21T06:43:20;3.20;99.90
22450;DHT22;11392;57.390;-2.468;2024-02-21T06:45:47;3.20;99.90
22450;DHT22;11392;57.390;-2.468;2024-02-21T06:48:18;3.30;99.90
22450;DHT22;11392;57.390;-2.468;2024-02-21T06:50:46;3.30;99.90
22450;DHT22;11392;57.390;-2.468;2024-02-21T06:53:13;3.40;99.90
22450;DHT22;11392;57.390;-2.468;2024-02-21T06:55:40;3.30;99.90
22450;DHT22;11392;57.390;-2.468;2024-02-21T06:58:07;3.30;99.90
22450;DHT22;11392;57.390;-2.468;2024-02-21T07:00:39;3.40;99.90
22450;DHT22;11392;57.390;-2.468;2024-02-21T07:03:07;3.50;99.90
22450;DHT22;11392;57.390;-2.468;2024-02-21T07:05:34;3.50;99.90
22450;DHT22;11392;57.390;-2.468;2024-02-21T07:08:02;3.50;99.90
22450;DHT22;11392;57.390;-2.468;2024-02-21T07:10:30;3.50;99.90
22450;DHT22;11392;57.390;-2.468;2024-02-21T07:12:57;3.60;99.90
22450;DHT22;11392;57.390;-2.468;2024-02-21T07:15:24;3.70;99.90
22450;DHT22;11392;57.390;-2.468;2024-02-21T07:17:53;3.80;99.90
22450;DHT22;11392;57.390;-2.468;2024-02-21T07:20:20;3.70;99.90
22450;DHT22;11392;57.390;-2.468;2024-02-21T07:22:48;3.70;99.90
22450;DHT22;11392;57.390;-2.468;2024-02-21T07:25:15;3.80;99.90
22450;DHT22;11392;57.390;-2.468;2024-02-21T07:27:44;3.90;99.90
22450;DHT22;11392;57.390;-2.468;2024-02-21T07:30:12;4.00;99.90
22450;DHT22;11392;57.390;-2.468;2024-02-21T07:32:43;4.00;99.90
22450;DHT22;11392;57.390;-2.468;2024-02-21T07:35:10;4.00;99.90
22450;DHT22;11392;57.390;-2.468;2024-02-21T07:37:38;4.00;99.90
22450;DHT22;11392;57.390;-2.468;2024-02-21T07:40:06;4.10;99.90
22450;DHT22;11392;57.390;-2.468;2024-02-21T07:42:38;4.00;99.90
22450;DHT22;11392;57.390;-2.468;2024-02-21T07:45:09;4.00;99.90
22450;DHT22;11392;57.390;-2.468;2024-02-21T07:47:37;4.10;99.90
22450;DHT22;11392;57.390;-2.468;2024-02-21T07:50:06;4.20;99.90
22450;DHT22;11392;57.390;-2.468;2024-02-21T07:52:34;4.10;99.90
22450;DHT22;11392;57.390;-2.468;2024-02-21T07:55:01;4.10;99.90
22450;DHT22;11392;57.390;-2.468;2024-02-21T07:57:28;4.10;99.90
22450;DHT22;11392;57.390;-2.468;2024-02-21T07:59:55;4.10;99.90
22450;DHT22;11392;57.390;-2.468;2024-02-21T08:02:24;4.10;99.90
22450;DHT22;11392;57.390;-2.468;2024-02-21T08:04:51;4.10;99.90
22450;DHT22;11392;57.390;-2.468;2024-02-21T08:07:19;4.10;99.90
22450;DHT22;11392;57.390;-2.468;2024-02-21T08:09:46;4.20;99.90
22450;DHT22;11392;57.390;-2.468;2024-02-21T08:12:13;4.20;99.90
22450;DHT22;11392;57.390;-2.468;2024-02-21T08:14:40;4.40;99.90
22450;DHT22;11392;57.390;-2.468;2024-02-21T08:17:07;4.30;99.90
22450;DHT22;11392;57.390;-2.468;2024-02-21T08:19:34;4.40;99.90
22450;DHT22;11392;57.390;-2.468;2024-02-21T08:22:02;4.40;99.90
22450;DHT22;11392;57.390;-2.468;2024-02-21T08:24:30;4.40;99.90
22450;DHT22;11392;57.390;-2.468;2024-02-21T08:26:57;4.50;99.90
22450;DHT22;11392;57.390;-2.468;2024-02-21T08:29:24;4.50;99.90
22450;DHT22;11392;57.390;-2.468;2024-02-21T08:31:53;4.50;99.90
22450;DHT22;11392;57.390;-2.468;2024-02-21T08:34:20;4.60;99.90
22450;DHT22;11392;57.390;-2.468;2024-02-21T08:36:48;4.60;99.90
22450;DHT22;11392;57.390;-2.468;2024-02-21T08:39:15;4.60;99.90
22450;DHT22;11392;57.390;-2.468;2024-02-21T08:41:45;4.60;99.90
22450;DHT22;11392;57.390;-2.468;2024-02-21T08:44:23;4.50;99.90
22450;DHT22;11392;57.390;-2.468;2024-02-21T08:46:56;4.60;99.90
22450;DHT22;11392;57.390;-2.468;2024-02-21T08:49:23;4.60;99.90
22450;DHT22;11392;57.390;-2.468;2024-02-21T08:52:00;4.60;99.90
22450;DHT22;11392;57.390;-2.468;2024-02-21T08:54:27;4.60;99.90
22450;DHT22;11392;57.390;-2.468;2024-02-21T08:56:54;4.60;99.90
22450;DHT22;11392;57.390;-2.468;2024-02-21T08:59:22;4.60;99.90
22450;DHT22;11392;57.390;-2.468;2024-02-21T09:01:49;4.70;99.90
22450;DHT22;11392;57.390;-2.468;2024-02-21T09:04:16;4.70;99.90
22450;DHT22;11392;57.390;-2.468;2024-02-21T09:06:43;4.80;99.90
22450;DHT22;11392;57.390;-2.468;2024-02-21T09:09:12;4.80;99.90
22450;DHT22;11392;57.390;-2.468;2024-02-21T09:11:39;4.80;99.90
22450;DHT22;11392;57.390;-2.468;2024-02-21T09:14:07;4.80;99.90
22450;DHT22;11392;57.390;-2.468;2024-02-21T09:16:34;4.90;99.90
22450;DHT22;11392;57.390;-2.468;2024-02-21T09:19:02;5.00;99.90
22450;DHT22;11392;57.390;-2.468;2024-02-21T09:21:29;5.00;99.90
22450;DHT22;11392;57.390;-2.468;2024-02-21T09:23:56;5.00;99.90
22450;DHT22;11392;57.390;-2.468;2024-02-21T09:26:26;5.00;99.90
22450;DHT22;11392;57.390;-2.468;2024-02-21T09:28:53;5.00;99.90
22450;DHT22;11392;57.390;-2.468;2024-02-21T09:31:21;5.10;99.90
22450;DHT22;11392;57.390;-2.468;2024-02-21T09:33:48;5.10;99.90
22450;DHT22;11392;57.390;-2.468;2024-02-21T09:36:15;5.10;99.90
22450;DHT22;11392;57.390;-2.468;2024-02-21T09:38:42;5.20;99.90
22450;DHT22;11392;57.390;-2.468;2024-02-21T09:41:17;5.20;99.90
22450;DHT22;11392;57.390;-2.468;2024-02-21T09:43:51;5.20;99.90
22450;DHT22;11392;57.390;-2.468;2024-02-21T09:46:30;5.20;99.90
22450;DHT22;11392;57.390;-2.468;2024-02-21T09:49:11;5.30;99.90
22450;DHT22;11392;57.390;-2.468;2024-02-21T09:51:41;5.30;99.90
22450;DHT22;11392;57.390;-2.468;2024-02-21T09:54:10;5.30;99.90
22450;DHT22;11392;57.390;-2.468;2024-02-21T09:56:45;5.40;99.90
22450;DHT22;11392;57.390;-2.468;2024-02-21T09:59:16;5.50;99.90
22450;DHT22;11392;57.390;-2.468;2024-02-21T10:01:44;5.60;99.90
22450;DHT22;11392;57.390;-2.468;2024-02-21T10:04:11;5.60;99.90
22450;DHT22;11392;57.390;-2.468;2024-02-21T10:06:39;5.70;99.90
22450;DHT22;11392;57.390;-2.468;2024-02-21T10:09:06;5.80;99.90
22450;DHT22;11392;57.390;-2.468;2024-02-21T10:11:34;5.90;99.90
22450;DHT22;11392;57.390;-2.468;2024-02-21T10:14:04;5.90;99.90
22450;DHT22;11392;57.390;-2.468;2024-02-21T10:16:32;6.00;99.90
22450;DHT22;11392;57.390;-2.468;2024-02-21T10:19:00;6.10;99.90
22450;DHT22;11392;57.390;-2.468;2024-02-21T10:21:28;6.20;99.90
22450;DHT22;11392;57.390;-2.468;2024-02-21T10:23:56;6.20;99.90
22450;DHT22;11392;57.390;-2.468;2024-02-21T10:26:23;6.30;99.90
22450;DHT22;11392;57.390;-2.468;2024-02-21T10:28:51;6.30;99.90
22450;DHT22;11392;57.390;-2.468;2024-02-21T10:31:24;6.40;99.90
22450;DHT22;11392;57.390;-2.468;2024-02-21T10:33:58;6.50;99.90
22450;DHT22;11392;57.390;-2.468;2024-02-21T10:36:26;6.50;99.90
22450;DHT22;11392;57.390;-2.468;2024-02-21T10:38:53;6.60;99.90
22450;DHT22;11392;57.390;-2.468;2024-02-21T10:41:22;6.60;99.90
22450;DHT22;11392;57.390;-2.468;2024-02-21T10:43:51;6.70;99.90
22450;DHT22;11392;57.390;-2.468;2024-02-21T10:46:22;6.70;99.90
22450;DHT22;11392;57.390;-2.468;2024-02-21T10:49:16;6.70;99.90
22450;DHT22;11392;57.390;-2.468;2024-02-21T10:51:47;6.70;99.90
22450;DHT22;11392;57.390;-2.468;2024-02-21T10:57:13;6.80;99.90
22450;DHT22;11392;57.390;-2.468;2024-02-21T10:59:44;6.80;99.90
22450;DHT22;11392;57.390;-2.468;2024-02-21T11:02:11;6.90;99.90
22450;DHT22;11392;57.390;-2.468;2024-02-21T11:04:40;6.90;99.90
22450;DHT22;11392;57.390;-2.468;2024-02-21T11:07:09;6.90;99.90
22450;DHT22;11392;57.390;-2.468;2024-02-21T11:09:37;6.90;99.90
22450;DHT22;11392;57.390;-2.468;2024-02-21T11:12:06;7.10;99.90
22450;DHT22;11392;57.390;-2.468;2024-02-21T11:14:34;7.10;99.90
22450;DHT22;11392;57.390;-2.468;2024-02-21T11:17:19;7.10;99.90
22450;DHT22;11392;57.390;-2.468;2024-02-21T11:19:48;7.10;99.90
22450;DHT22;11392;57.390;-2.468;2024-02-21T11:22:19;7.10;99.90
22450;DHT22;11392;57.390;-2.468;2024-02-21T11:24:49;7.20;99.90
22450;DHT22;11392;57.390;-2.468;2024-02-21T11:27:21;7.20;99.90
22450;DHT22;11392;57.390;-2.468;2024-02-21T11:29:49;7.30;99.90
22450;DHT22;11392;57.390;-2.468;2024-02-21T11:32:21;7.30;99.90
22450;DHT22;11392;57.390;-2.468;2024-02-21T11:35:03;7.30;99.90
22450;DHT22;11392;57.390;-2.468;2024-02-21T11:37:36;7.30;99.90
22450;DHT22;11392;57.390;-2.468;2024-02-21T11:40:07;7.30;99.90
22450;DHT22;11392;57.390;-2.468;2024-02-21T11:42:39;7.30;99.90
22450;DHT22;11392;57.390;-2.468;2024-02-21T11:45:07;7.30;99.90
22450;DHT22;11392;57.390;-2.468;2024-02-21T11:47:36;7.30;99.90
22450;DHT22;11392;57.390;-2.468;2024-02-21T11:50:10;7.40;99.90
22450;DHT22;11392;57.390;-2.468;2024-02-21T11:52:38;7.40;99.90
22450;DHT22;11392;57.390;-2.468;2024-02-21T11:55:06;7.40;99.90
22450;DHT22;11392;57.390;-2.468;2024-02-21T11:57:37;7.40;99.90
22450;DHT22;11392;57.390;-2.468;2024-02-21T12:00:15;7.50;99.90
22450;DHT22;11392;57.390;-2.468;2024-02-21T12:02:45;7.50;99.90
22450;DHT22;11392;57.390;-2.468;2024-02-21T12:05:13;7.50;99.90
22450;DHT22;11392;57.390;-2.468;2024-02-21T12:07:41;7.50;99.90
22450;DHT22;11392;57.390;-2.468;2024-02-21T12:10:12;7.60;99.90
22450;DHT22;11392;57.390;-2.468;2024-02-21T12:12:39;7.50;99.90
22450;DHT22;11392;57.390;-2.468;2024-02-21T12:15:07;7.50;99.90
22450;DHT22;11392;57.390;-2.468;2024-02-21T12:17:39;7.50;99.90
22450;DHT22;11392;57.390;-2.468;2024-02-21T12:20:07;7.50;99.90
22450;DHT22;11392;57.390;-2.468;2024-02-21T12:22:41;7.60;99.90
22450;DHT22;11392;57.390;-2.468;2024-02-21T12:25:19;7.50;99.90
22450;DHT22;11392;57.390;-2.468;2024-02-21T12:27:47;7.50;99.90
22450;DHT22;11392;57.390;-2.468;2024-02-21T12:30:18;7.50;99.90
22450;DHT22;11392;57.390;-2.468;2024-02-21T12:32:46;7.60;99.90
22450;DHT22;11392;57.390;-2.468;2024-02-21T12:35:15;7.60;99.90
22450;DHT22;11392;57.390;-2.468;2024-02-21T12:37:43;7.60;99.90
22450;DHT22;11392;57.390;-2.468;2024-02-21T12:40:10;7.60;99.90
22450;DHT22;11392;57.390;-2.468;2024-02-21T12:42:38;7.70;99.90
22450;DHT22;11392;57.390;-2.468;2024-02-21T12:45:05;7.70;99.90
22450;DHT22;11392;57.390;-2.468;2024-02-21T12:47:32;7.80;99.90
22450;DHT22;11392;57.390;-2.468;2024-02-21T12:50:00;7.80;99.90
22450;DHT22;11392;57.390;-2.468;2024-02-21T12:52:27;7.90;99.90
22450;DHT22;11392;57.390;-2.468;2024-02-21T12:54:55;7.90;99.90
22450;DHT22;11392;57.390;-2.468;2024-02-21T12:57:24;8.00;99.90
22450;DHT22;11392;57.390;-2.468;2024-02-21T12:59:54;7.90;99.90
22450;DHT22;11392;57.390;-2.468;2024-02-21T13:02:21;8.00;99.90
22450;DHT22;11392;57.390;-2.468;2024-02-21T13:04:48;8.00;99.90
22450;DHT22;11392;57.390;-2.468;2024-02-21T13:07:16;8.00;99.90
22450;DHT22;11392;57.390;-2.468;2024-02-21T13:09:43;8.00;99.90
22450;DHT22;11392;57.390;-2.468;2024-02-21T13:12:10;8.00;99.90
22450;DHT22;11392;57.390;-2.468;2024-02-21T13:14:39;8.00;99.90
22450;DHT22;11392;57.390;-2.468;2024-02-21T13:17:06;8.10;99.90
22450;DHT22;11392;57.390;-2.468;2024-02-21T13:19:34;8.10;99.90
22450;DHT22;11392;57.390;-2.468;2024-02-21T13:22:01;8.20;99.90
22450;DHT22;11392;57.390;-2.468;2024-02-21T13:24:30;8.20;99.90
22450;DHT22;11392;57.390;-2.468;2024-02-21T13:29:33;8.30;99.90
22450;DHT22;11392;57.390;-2.468;2024-02-21T13:32:00;8.30;99.90
22450;DHT22;11392;57.390;-2.468;2024-02-21T13:34:27;8.30;99.90
22450;DHT22;11392;57.390;-2.468;2024-02-21T13:36:55;8.40;99.90
22450;DHT22;11392;57.390;-2.468;2024-02-21T13:39:22;8.40;99.90
22450;DHT22;11392;57.390;-2.468;2024-02-21T13:41:49;8.50;99.90
22450;DHT22;11392;57.390;-2.468;2024-02-21T13:44:16;8.50;99.90
22450;DHT22;11392;57.390;-2.468;2024-02-21T13:46:43;8.60;99.90
22450;DHT22;11392;57.390;-2.468;2024-02-21T13:49:10;8.60;99.90
22450;DHT22;11392;57.390;-2.468;2024-02-21T13:51:37;8.60;99.90
22450;DHT22;11392;57.390;-2.468;2024-02-21T13:54:04;8.50;99.90
22450;DHT22;11392;57.390;-2.468;2024-02-21T13:56:32;8.60;99.90
22450;DHT22;11392;57.390;-2.468;2024-02-21T13:58:59;8.50;99.90
22450;DHT22;11392;57.390;-2.468;2024-02-21T14:01:30;8.50;99.90
22450;DHT22;11392;57.390;-2.468;2024-02-21T14:03:59;8.60;99.90
22450;DHT22;11392;57.390;-2.468;2024-02-21T14:06:26;8.60;99.90
22450;DHT22;11392;57.390;-2.468;2024-02-21T14:08:53;8.60;99.90
22450;DHT22;11392;57.390;-2.468;2024-02-21T14:11:21;9.00;99.90
22450;DHT22;11392;57.390;-2.468;2024-02-21T14:13:48;9.30;99.90
22450;DHT22;11392;57.390;-2.468;2024-02-21T14:16:15;9.20;99.90
22450;DHT22;11392;57.390;-2.468;2024-02-21T14:18:42;9.80;99.90
22450;DHT22;11392;57.390;-2.468;2024-02-21T14:21:10;10.00;99.90
22450;DHT22;11392;57.390;-2.468;2024-02-21T14:23:38;10.50;99.90
22450;DHT22;11392;57.390;-2.468;2024-02-21T14:26:05;10.40;99.90
22450;DHT22;11392;57.390;-2.468;2024-02-21T14:28:33;10.70;99.90
22450;DHT22;11392;57.390;-2.468;2024-02-21T14:31:00;10.90;99.90
22450;DHT22;11392;57.390;-2.468;2024-02-21T14:33:27;11.10;99.90
22450;DHT22;11392;57.390;-2.468;2024-02-21T14:35:55;11.30;99.90
22450;DHT22;11392;57.390;-2.468;2024-02-21T14:38:22;11.40;99.90
22450;DHT22;11392;57.390;-2.468;2024-02-21T14:40:49;11.60;99.90
22450;DHT22;11392;57.390;-2.468;2024-02-21T14:43:16;11.30;99.90
22450;DHT22;11392;57.390;-2.468;2024-02-21T14:45:44;11.10;99.90
22450;DHT22;11392;57.390;-2.468;2024-02-21T14:48:15;11.20;99.90
22450;DHT22;11392;57.390;-2.468;2024-02-21T14:50:42;11.40;99.90
22450;DHT22;11392;57.390;-2.468;2024-02-21T14:53:09;11.80;99.90
22450;DHT22;11392;57.390;-2.468;2024-02-21T14:55:36;12.10;99.90
22450;DHT22;11392;57.390;-2.468;2024-02-21T14:58:08;12.00;99.90
22450;DHT22;11392;57.390;-2.468;2024-02-21T15:00:35;11.50;99.90
22450;DHT22;11392;57.390;-2.468;2024-02-21T15:03:02;11.10;99.90
22450;DHT22;11392;57.390;-2.468;2024-02-21T15:05:29;10.90;99.90
22450;DHT22;11392;57.390;-2.468;2024-02-21T15:07:57;10.60;99.90
22450;DHT22;11392;57.390;-2.468;2024-02-21T15:10:25;10.50;99.90
22450;DHT22;11392;57.390;-2.468;2024-02-21T15:12:53;10.30;99.90
22450;DHT22;11392;57.390;-2.468;2024-02-21T15:15:20;10.20;99.90
22450;DHT22;11392;57.390;-2.468;2024-02-21T15:17:47;10.10;99.90
22450;DHT22;11392;57.390;-2.468;2024-02-21T15:20:14;10.20;99.90
22450;DHT22;11392;57.390;-2.468;2024-02-21T15:22:42;10.20;99.90
22450;DHT22;11392;57.390;-2.468;2024-02-21T15:25:09;10.20;99.90
22450;DHT22;11392;57.390;-2.468;2024-02-21T15:27:45;10.30;99.90
22450;DHT22;11392;57.390;-2.468;2024-02-21T15:30:13;10.30;99.90
22450;DHT22;11392;57.390;-2.468;2024-02-21T15:32:41;10.30;99.90
22450;DHT22;11392;57.390;-2.468;2024-02-21T15:35:11;10.30;99.90
22450;DHT22;11392;57.390;-2.468;2024-02-21T15:37:40;10.30;99.90
22450;DHT22;11392;57.390;-2.468;2024-02-21T15:40:07;10.30;99.90
22450;DHT22;11392;57.390;-2.468;2024-02-21T15:42:35;10.30;99.90